createdAt,value
2023-04-19T00:02:35.830Z,100208.03
2023-04-19T00:05:38.843Z,100197.94
2023-04-19T00:08:42.569Z,100199.41
2023-04-19T00:11:45.773Z,100193.72
2023-04-19T00:14:48.608Z,100192.59
2023-04-19T00:17:51.444Z,100192.75
2023-04-19T00:20:54.266Z,100188.88
2023-04-19T00:23:57.171Z,100189.03
2023-04-19T00:27:00.017Z,100184.00
2023-04-19T00:30:02.819Z,100184.84
2023-04-19T00:33:13.084Z,100182.75
2023-04-19T00:36:16.095Z,100179.34
2023-04-19T00:39:18.989Z,100173.66
2023-04-19T00:42:21.747Z,100172.81
2023-04-19T00:45:25.899Z,100177.72
2023-04-19T00:48:31.008Z,100177.88
2023-04-19T00:51:34.667Z,100172.41
2023-04-19T00:54:37.959Z,100169.81
2023-04-19T00:57:41.236Z,100173.06
2023-04-19T01:00:45.499Z,100164.97
2023-04-19T01:03:48.681Z,100167.22
2023-04-19T01:06:51.547Z,100161.41
2023-04-19T01:09:54.530Z,100146.19
2023-04-19T01:12:57.835Z,100148.63
2023-04-19T01:16:01.316Z,100150.59
2023-04-19T01:19:04.262Z,100144.44
2023-04-19T01:22:07.571Z,100143.97
2023-04-19T01:25:12.591Z,100143.63
2023-04-19T01:28:18.376Z,100142.34
2023-04-19T01:31:21.415Z,100140.88
2023-04-19T01:34:24.415Z,100143.25
2023-04-19T01:37:27.283Z,100134.50
2023-04-19T01:40:30.048Z,100138.41
2023-04-19T01:43:33.754Z,100135.63
2023-04-19T01:46:38.985Z,100137.22
2023-04-19T01:49:43.209Z,100130.91
2023-04-19T01:52:46.001Z,100138.19
2023-04-19T01:55:48.756Z,100119.84
2023-04-19T01:58:51.594Z,100128.09
2023-04-19T02:01:54.424Z,100123.41
2023-04-19T02:04:58.138Z,100130.84
2023-04-19T02:08:02.017Z,100117.09
2023-04-19T02:11:08.926Z,100122.56
2023-04-19T02:14:11.907Z,100129.44
2023-04-19T02:17:14.729Z,100122.94
2023-04-19T02:20:17.611Z,100116.63
2023-04-19T02:23:20.395Z,100120.81
2023-04-19T02:26:24.684Z,100116.97
2023-04-19T02:29:28.036Z,100116.31
2023-04-19T02:32:30.985Z,100118.59
2023-04-19T02:35:34.183Z,100112.63
2023-04-19T02:38:37.248Z,100108.72
2023-04-19T02:41:39.958Z,100098.06
2023-04-19T02:44:42.721Z,100103.75
2023-04-19T02:47:46.885Z,100094.69
2023-04-19T02:50:49.870Z,100099.56
2023-04-19T02:53:53.533Z,100094.06
2023-04-19T02:56:57.750Z,100098.41
2023-04-19T03:00:00.764Z,100093.88
2023-04-19T03:03:07.644Z,100087.91
2023-04-19T03:06:10.697Z,100086.72
2023-04-19T03:09:13.809Z,100083.03
2023-04-19T03:12:17.015Z,100087.56
2023-04-19T03:15:27.721Z,100082.72
2023-04-19T03:18:30.928Z,100077.38
2023-04-19T03:21:34.378Z,100087.13
2023-04-19T03:24:38.227Z,100077.56
2023-04-19T03:28:01.437Z,100074.34
2023-04-19T03:31:24.177Z,100069.63
2023-04-19T03:34:29.339Z,100073.34
2023-04-19T03:37:32.104Z,100069.63
2023-04-19T03:40:38.638Z,100070.31
2023-04-19T03:43:42.667Z,100076.78
2023-04-19T03:46:46.878Z,100078.09
2023-04-19T03:49:51.864Z,100081.66
2023-04-19T03:52:54.995Z,100078.88
2023-04-19T03:55:57.741Z,100082.63
2023-04-19T03:59:01.215Z,100081.16
2023-04-19T04:02:07.141Z,100087.47
2023-04-19T04:05:10.162Z,100084.41
2023-04-19T04:08:14.231Z,100085.19
2023-04-19T04:11:17.305Z,100086.81
2023-04-19T04:14:27.245Z,100083.56
2023-04-19T04:17:30.195Z,100085.19
2023-04-19T04:20:33.271Z,100085.81
2023-04-19T04:23:42.167Z,100091.34
2023-04-19T04:26:51.659Z,100078.53
2023-04-19T04:30:05.182Z,100071.56
2023-04-19T04:33:08.761Z,100082.72
2023-04-19T04:36:12.140Z,100079.78
2023-04-19T04:39:16.717Z,100078.00
2023-04-19T04:42:21.743Z,100077.16
2023-04-19T04:45:24.516Z,100075.97
2023-04-19T04:48:27.372Z,100083.72
2023-04-19T04:51:30.137Z,100085.00
2023-04-19T04:54:33.959Z,100076.38
2023-04-19T04:57:37.368Z,100079.63
2023-04-19T05:00:41.702Z,100077.47
2023-04-19T05:03:46.230Z,100084.53
2023-04-19T05:06:53.988Z,100071.53
2023-04-19T05:10:01.072Z,100075.22
2023-04-19T05:13:10.620Z,100074.06
2023-04-19T05:16:14.599Z,100069.78
2023-04-19T05:19:20.796Z,100071.00
2023-04-19T05:22:29.941Z,100067.38
2023-04-19T05:25:33.982Z,100068.97
2023-04-19T05:28:37.359Z,100071.69
2023-04-19T05:31:49.161Z,100065.03
2023-04-19T05:34:59.618Z,100078.47
2023-04-19T05:38:02.995Z,100069.91
2023-04-19T05:41:06.073Z,100071.41
2023-04-19T05:44:08.914Z,100067.91
2023-04-19T05:47:12.424Z,100070.06
2023-04-19T05:50:48.063Z,100076.75
2023-04-19T05:54:05.487Z,100070.59
2023-04-19T05:57:08.576Z,100072.75
2023-04-19T06:00:11.880Z,100064.47
2023-04-19T06:03:27.833Z,100075.88
2023-04-19T06:06:34.460Z,100076.84
2023-04-19T06:09:37.222Z,100071.69
2023-04-19T06:12:40.082Z,100080.38
2023-04-19T06:15:43.168Z,100077.13
2023-04-19T06:18:46.108Z,100069.16
2023-04-19T06:21:49.528Z,100078.69
2023-04-19T06:24:52.422Z,100076.97
2023-04-19T06:27:55.182Z,100082.09
2023-04-19T06:30:58.977Z,100082.44
2023-04-19T06:34:02.242Z,100088.22
2023-04-19T06:37:05.276Z,100089.03
2023-04-19T06:40:08.793Z,100083.41
2023-04-19T06:43:11.615Z,100082.09
2023-04-19T06:46:14.621Z,100088.66
2023-04-19T06:49:17.402Z,100082.41
2023-04-19T06:52:20.655Z,100093.94
2023-04-19T06:55:23.536Z,100090.78
2023-04-19T06:58:27.318Z,100078.66
2023-04-19T07:01:30.108Z,100085.00
2023-04-19T07:04:33.098Z,100083.38
2023-04-19T07:07:38.277Z,100091.69
2023-04-19T07:10:43.278Z,100084.84
2023-04-19T07:13:46.307Z,100086.69
2023-04-19T07:16:50.870Z,100087.25
2023-04-19T07:19:54.382Z,100091.88
2023-04-19T07:22:58.963Z,100088.91
2023-04-19T07:26:02.061Z,100099.28
2023-04-19T07:29:05.036Z,100088.41
2023-04-19T07:32:07.953Z,100093.41
2023-04-19T07:35:10.827Z,100088.25
2023-04-19T07:38:13.635Z,100093.84
2023-04-19T07:41:17.331Z,100088.78
2023-04-19T07:44:25.612Z,100085.63
2023-04-19T07:47:28.495Z,100083.63
2023-04-19T07:50:31.469Z,100084.59
2023-04-19T07:53:34.357Z,100086.44
2023-04-19T07:56:37.200Z,100087.06
2023-04-19T07:59:40.160Z,100086.84
2023-04-19T08:02:47.161Z,100086.44
2023-04-19T08:05:50.113Z,100082.03
2023-04-19T08:08:53.092Z,100092.09
2023-04-19T08:11:57.828Z,100081.44
2023-04-19T08:15:09.878Z,100086.25
2023-04-19T08:18:23.128Z,100081.22
2023-04-19T08:21:34.656Z,100086.47
2023-04-19T08:24:44.475Z,100081.25
2023-04-19T08:27:47.274Z,100076.41
2023-04-19T08:30:50.500Z,100076.38
2023-04-19T08:33:53.478Z,100082.19
2023-04-19T08:37:03.891Z,100074.56
2023-04-19T08:40:08.694Z,100083.25
2023-04-19T08:43:11.487Z,100081.66
2023-04-19T08:46:14.556Z,100075.19
2023-04-19T08:49:20.324Z,100053.84
2023-04-19T08:52:25.207Z,100056.50
2023-04-19T08:55:30.251Z,100068.16
2023-04-19T09:01:40.025Z,100054.03
2023-04-19T09:04:43.693Z,100055.38
2023-04-19T09:07:47.206Z,100056.09
2023-04-19T09:10:55.111Z,100060.09
2023-04-19T09:14:11.057Z,100059.47
2023-04-19T09:17:16.847Z,100053.69
2023-04-19T09:20:44.951Z,100049.03
2023-04-19T09:23:48.620Z,100047.38
2023-04-19T09:26:55.716Z,100054.63
2023-04-19T09:30:02.982Z,100048.97
2023-04-19T09:33:11.373Z,100046.59
2023-04-19T09:36:30.875Z,100042.94
2023-04-19T09:39:34.005Z,100038.38
2023-04-19T09:45:52.687Z,100038.31
2023-04-19T09:48:57.639Z,100034.19
2023-04-19T09:52:01.598Z,100044.50
2023-04-19T09:55:17.842Z,100041.16
2023-04-19T09:58:29.371Z,100032.25
2023-04-19T10:01:45.891Z,100038.25
2023-04-19T10:05:03.335Z,100039.28
2023-04-19T10:08:13.721Z,100033.56
2023-04-19T10:11:17.603Z,100032.56
2023-04-19T10:14:24.828Z,100020.16
2023-04-19T10:17:27.974Z,100018.41
2023-04-19T10:20:37.817Z,100019.63
2023-04-19T10:23:40.903Z,100023.22
2023-04-19T10:27:07.866Z,100016.50
2023-04-19T10:30:24.181Z,100013.41
2023-04-19T10:33:28.301Z,100007.03
2023-04-19T10:36:31.214Z,99999.25
2023-04-19T10:39:43.083Z,100001.06
2023-04-19T10:43:10.569Z,99988.97
2023-04-19T10:46:37.236Z,99992.13
2023-04-19T10:49:51.202Z,99988.19
2023-04-19T10:52:54.035Z,99994.25
2023-04-19T10:55:57.139Z,99990.19
2023-04-19T10:59:00.533Z,99984.13
2023-04-19T11:02:25.279Z,99956.25
2023-04-19T11:05:28.174Z,99979.06
2023-04-19T11:08:31.231Z,99974.84
2023-04-19T11:11:37.567Z,99976.66
2023-04-19T11:14:42.924Z,99980.81
2023-04-19T11:18:08.906Z,99975.28
2023-04-19T11:21:15.160Z,99981.03
2023-04-19T11:24:19.152Z,99989.75
2023-04-19T11:27:22.084Z,99980.75
2023-04-19T11:30:31.365Z,99983.75
2023-04-19T11:33:34.882Z,99981.41
2023-04-19T11:36:47.978Z,99978.38
2023-04-19T11:39:50.949Z,99980.63
2023-04-19T11:43:00.620Z,99977.19
2023-04-19T11:46:10.754Z,99984.03
2023-04-19T11:49:27.424Z,99976.59
2023-04-19T11:52:30.248Z,99979.63
2023-04-19T11:55:33.637Z,99983.06
2023-04-19T11:58:44.659Z,99982.25
2023-04-19T12:01:47.986Z,99979.81
2023-04-19T12:04:52.195Z,99977.00
2023-04-19T12:08:06.830Z,99978.00
2023-04-19T12:11:09.910Z,99980.31
2023-04-19T12:14:15.252Z,99976.28
2023-04-19T12:17:18.360Z,99973.59
2023-04-19T12:20:35.560Z,99968.81
2023-04-19T12:23:38.304Z,99965.19
2023-04-19T12:26:57.517Z,99960.16
2023-04-19T12:30:00.658Z,99959.00
2023-04-19T12:33:03.767Z,99962.13
2023-04-19T12:36:06.806Z,99959.41
2023-04-19T12:39:09.968Z,99961.13
2023-04-19T12:42:13.417Z,99957.13
2023-04-19T12:45:16.559Z,99947.72
2023-04-19T12:48:19.421Z,99954.03
2023-04-19T12:51:22.181Z,99944.06
2023-04-19T12:54:25.104Z,99947.75
2023-04-19T12:57:28.342Z,99952.81
2023-04-19T13:00:31.128Z,99953.03
2023-04-19T13:03:36.697Z,99950.78
2023-04-19T13:06:40.324Z,99950.59
2023-04-19T13:09:43.134Z,99940.34
2023-04-19T13:12:45.830Z,99941.69
2023-04-19T13:15:48.649Z,99948.56
2023-04-19T13:18:52.780Z,99941.59
2023-04-19T13:21:55.830Z,99936.69
2023-04-19T13:24:58.759Z,99935.69
2023-04-19T13:28:01.541Z,99921.13
2023-04-19T13:31:05.795Z,99926.91
2023-04-19T13:34:08.563Z,99926.56
2023-04-19T13:37:11.533Z,99928.25
2023-04-19T13:40:19.445Z,99925.63
2023-04-19T13:43:22.852Z,99923.22
2023-04-19T13:46:25.736Z,99922.97
2023-04-19T13:49:28.655Z,99920.16
2023-04-19T13:52:31.417Z,99911.28
2023-04-19T13:55:34.340Z,99901.38
2023-04-19T13:58:37.678Z,99903.72
2023-04-19T14:01:41.317Z,99901.69
2023-04-19T14:04:44.134Z,99921.72
2023-04-19T14:07:47.143Z,99913.13
2023-04-19T14:10:50.934Z,99902.06
2023-04-19T14:13:54.336Z,99903.31
2023-04-19T14:16:57.033Z,99897.38
2023-04-19T14:19:59.735Z,99908.00
2023-04-19T14:23:02.553Z,99914.50
2023-04-19T14:26:05.462Z,99909.16
2023-04-19T14:29:08.448Z,99913.75
2023-04-19T14:32:25.177Z,99905.31
2023-04-19T14:35:29.178Z,99906.00
2023-04-19T14:38:32.717Z,99914.94
2023-04-19T14:41:36.023Z,99917.16
2023-04-19T14:44:38.689Z,99909.19
2023-04-19T14:47:41.525Z,99903.25
2023-04-19T14:50:44.368Z,99914.78
2023-04-19T14:53:47.431Z,99911.22
2023-04-19T14:56:50.393Z,99904.72
2023-04-19T15:00:01.325Z,99910.59
2023-04-19T15:03:04.966Z,99910.72
2023-04-19T15:06:08.296Z,99908.22
2023-04-19T15:09:11.899Z,99911.44
2023-04-19T15:12:15.074Z,99907.84
2023-04-19T15:15:17.863Z,99911.44
2023-04-19T15:18:20.995Z,99915.91
2023-04-19T15:21:25.716Z,99919.66
2023-04-19T15:24:28.568Z,99921.34
2023-04-19T15:27:31.683Z,99920.16
2023-04-19T15:30:34.545Z,99917.31
2023-04-19T15:33:37.901Z,99921.63
2023-04-19T15:36:41.127Z,99924.69
2023-04-19T15:39:44.103Z,99931.78
2023-04-19T15:42:46.877Z,99921.50
2023-04-19T15:45:49.706Z,99923.53
2023-04-19T15:48:52.540Z,99922.59
2023-04-19T15:51:55.817Z,99922.22
2023-04-19T15:54:58.573Z,99926.53
2023-04-19T15:58:01.437Z,99933.38
2023-04-19T16:01:04.219Z,99924.31
2023-04-19T16:04:07.390Z,99922.06
2023-04-19T16:07:10.333Z,99925.13
2023-04-19T16:10:13.759Z,99924.13
2023-04-19T16:13:17.095Z,99918.88
2023-04-19T16:16:19.851Z,99921.91
2023-04-19T16:19:23.489Z,99916.94
2023-04-19T16:22:26.444Z,99907.38
2023-04-19T16:25:32.713Z,99929.28
2023-04-19T16:28:35.995Z,99925.81
2023-04-19T16:31:38.783Z,99925.13
2023-04-19T16:34:41.703Z,99922.50
2023-04-19T16:37:44.551Z,99918.06
2023-04-19T16:40:48.758Z,99926.53
2023-04-19T16:43:51.727Z,99930.69
2023-04-19T16:46:54.627Z,99926.63
2023-04-19T16:49:58.501Z,99927.22
2023-04-19T16:53:01.427Z,99924.06
2023-04-19T16:56:04.686Z,99933.19
2023-04-19T16:59:07.557Z,99946.50
2023-04-19T17:02:11.171Z,99943.09
2023-04-19T17:05:16.203Z,99944.75
2023-04-19T17:08:19.034Z,99948.78
2023-04-19T17:11:21.769Z,99941.34
2023-04-19T17:14:24.496Z,99947.91
2023-04-19T17:17:27.516Z,99952.09
2023-04-19T17:20:30.318Z,99956.09
2023-04-19T17:23:33.163Z,99947.41
2023-04-19T17:26:36.007Z,99959.19
2023-04-19T17:29:38.772Z,99961.97
2023-04-19T17:32:42.107Z,99972.75
2023-04-19T17:35:45.050Z,99968.28
2023-04-19T17:38:48.305Z,99971.72
2023-04-19T17:41:51.496Z,99984.34
2023-04-19T17:44:54.527Z,99994.63
2023-04-19T17:47:57.422Z,99991.44
2023-04-19T17:51:00.603Z,99997.56
2023-04-19T17:54:03.906Z,100003.47
2023-04-19T17:57:07.050Z,100003.47
2023-04-19T18:00:15.902Z,100007.78
2023-04-19T18:03:19.211Z,100012.75
2023-04-19T18:06:23.088Z,100018.34
2023-04-19T18:09:27.541Z,100017.72
2023-04-19T18:12:30.680Z,100025.53
2023-04-19T18:15:33.441Z,100029.75
2023-04-19T18:18:36.805Z,100040.94
2023-04-19T18:21:39.869Z,100041.94
2023-04-19T18:24:45.288Z,100051.34
2023-04-19T18:27:49.388Z,100042.97
2023-04-19T18:30:52.734Z,100050.81
2023-04-19T18:33:55.882Z,100055.66
2023-04-19T18:37:00.932Z,100063.13
2023-04-19T18:40:07.561Z,100069.81
2023-04-19T18:43:11.128Z,100067.69
2023-04-19T18:46:15.884Z,100065.00
2023-04-19T18:49:18.993Z,100066.81
2023-04-19T18:52:21.850Z,100084.06
2023-04-19T18:55:26.663Z,100075.81
2023-04-19T18:58:29.730Z,100081.75
2023-04-19T19:01:33.764Z,100083.38
2023-04-19T19:04:51.213Z,100088.03
2023-04-19T19:08:04.321Z,100091.00
2023-04-19T19:11:32.987Z,100099.50
2023-04-19T19:14:35.695Z,100094.75
2023-04-19T19:17:38.941Z,100103.47
2023-04-19T19:20:42.182Z,100110.53
2023-04-19T19:23:45.547Z,100105.00
2023-04-19T19:26:49.002Z,100110.19
2023-04-19T19:29:52.257Z,100104.16
2023-04-19T19:32:55.509Z,100114.16
2023-04-19T19:35:59.275Z,100110.44
2023-04-19T19:39:02.597Z,100118.41
2023-04-19T19:42:06.798Z,100112.28
2023-04-19T19:45:10.550Z,100102.63
2023-04-19T19:48:13.626Z,100109.69
2023-04-19T19:51:42.223Z,100111.22
2023-04-19T19:54:39.425Z,100112.31
2023-04-19T20:03:56.402Z,100110.13
2023-04-19T20:10:10.598Z,100104.41
2023-04-19T20:13:13.509Z,100108.19
2023-04-19T20:16:18.837Z,100115.41
2023-04-19T20:19:21.945Z,100108.09
2023-04-19T20:22:25.014Z,100112.06
2023-04-19T20:25:27.852Z,100111.56
2023-04-19T20:28:31.010Z,100108.06
2023-04-19T20:31:34.035Z,100122.22
2023-04-19T20:34:37.877Z,100129.59
2023-04-19T20:37:40.897Z,100117.00
2023-04-19T20:40:44.249Z,100127.00
2023-04-19T20:43:47.885Z,100119.72
2023-04-19T20:46:52.265Z,100121.75
2023-04-19T20:49:55.615Z,100122.44
2023-04-19T20:52:58.553Z,100118.88
2023-04-19T20:56:02.939Z,100127.94
2023-04-19T20:59:05.932Z,100121.66
2023-04-19T21:02:09.020Z,100123.22
2023-04-19T21:05:12.069Z,100116.13
2023-04-19T21:08:16.234Z,100120.34
2023-04-19T21:11:19.124Z,100122.59
2023-04-19T21:14:21.879Z,100121.31
2023-04-19T21:17:24.840Z,100125.72
2023-04-19T21:20:27.741Z,100131.19
2023-04-19T21:23:30.483Z,100136.53
2023-04-19T21:26:33.399Z,100134.41
2023-04-19T21:29:36.109Z,100129.09
2023-04-19T21:32:38.997Z,100127.63
2023-04-19T21:35:41.716Z,100116.66
2023-04-19T21:38:44.644Z,100128.31
2023-04-19T21:41:47.617Z,100132.50
2023-04-19T21:44:50.333Z,100129.28
2023-04-19T21:47:53.102Z,100139.50
2023-04-19T21:50:55.882Z,100126.19
2023-04-19T21:53:59.050Z,100129.91
2023-04-19T21:57:02.154Z,100124.59
2023-04-19T22:00:06.899Z,100129.13
2023-04-19T22:03:09.809Z,100131.06
2023-04-19T22:06:14.029Z,100138.84
2023-04-19T22:09:16.875Z,100136.41
2023-04-19T22:12:19.865Z,100143.06
2023-04-19T22:15:23.388Z,100139.66
2023-04-19T22:18:26.188Z,100141.59
2023-04-19T22:21:29.023Z,100138.84
2023-04-19T22:24:31.704Z,100142.56
2023-04-19T22:27:34.460Z,100140.47
2023-04-19T22:30:37.232Z,100155.03
2023-04-19T22:33:39.942Z,100154.06
2023-04-19T22:36:42.757Z,100156.66
2023-04-19T22:39:45.767Z,100145.63
2023-04-19T22:42:48.976Z,100155.03
2023-04-19T22:45:51.770Z,100161.81
2023-04-19T22:48:56.210Z,100161.19
2023-04-19T22:51:59.885Z,100162.16
2023-04-19T22:55:02.740Z,100155.69
2023-04-19T22:58:05.741Z,100156.16
2023-04-19T23:01:08.471Z,100159.56
2023-04-19T23:04:14.328Z,100156.31
2023-04-19T23:07:20.070Z,100156.16
2023-04-19T23:10:24.135Z,100145.00
2023-04-19T23:13:26.952Z,100147.75
2023-04-19T23:16:29.967Z,100149.34
2023-04-19T23:19:32.698Z,100154.69
2023-04-19T23:22:35.810Z,100152.25
2023-04-19T23:25:38.831Z,100148.03
2023-04-19T23:28:41.636Z,100147.38
2023-04-19T23:31:44.385Z,100152.50
2023-04-19T23:34:47.255Z,100148.94
2023-04-19T23:37:50.067Z,100151.53
2023-04-19T23:40:52.914Z,100136.59
2023-04-19T23:43:56.151Z,100143.84
2023-04-19T23:46:59.283Z,100133.19
2023-04-19T23:50:02.136Z,100139.63
2023-04-19T23:53:05.702Z,100127.69
2023-04-19T23:56:08.795Z,100136.97
2023-04-19T23:59:11.586Z,100139.59
